Susan Miller — WDC6990 — position and weather

sailwx.info

Track history (hours):
 
Tides and Currents Weather Stations Pressure Air Temp Water Temp Dewpoint Dewpoint Depression Visibility Wind Speed Wind Dir Waves Ship Positions

Susan Miller

Owner: Miller's Tug & Barge, Staten Island, NY. More information available from US FCC via Universal Licensing System and Coast Guard Vessel Documentation Center.

Last reported at 2018-Apr-20 21:41 UTC. Time now 2018-Apr-23 03:54 UTC.
Position N 40°38' W 074°04'.

Length 20 m; draft 3 m.

Type: Tug. MMSI: 367064470.

Date/timePositionNaut miles runAvg speedWind from/ knotsBaromVisibWave heightAir tempDewpointWater temp
2018-Apr-20 21:41N 40°38' W 074°04'1 4.3
2018-Apr-20 21:30N 40°39' W 074°04'611.3
2018-Apr-20 21:00N 40°44' W 074°01'611.1
2018-Apr-20 20:30N 40°49' W 073°58'510.0
2018-Apr-20 20:00N 40°54' W 073°55'  
2018-Apr-17 10:29N 40°55' W 073°55'4 7.8
2018-Apr-17 09:58N 40°51' W 073°57'3 7.1
2018-Apr-17 09:31N 40°48' W 073°59'3 6.7
2018-Apr-17 09:00N 40°45' W 074°01'3 6.7
2018-Apr-17 08:30N 40°42' W 074°02'3 6.3
2018-Apr-17 08:00N 40°39' W 074°03'1 0.1
2018-Apr-16 18:00N 40°38' W 074°04'3 5.1
2018-Apr-16 17:30N 40°40' W 074°03'5 9.7
2018-Apr-16 17:00N 40°45' W 074°01'5 9.3
2018-Apr-16 16:30N 40°49' W 073°58'6 0.8
2018-Apr-16 09:18N 40°55' W 073°55'2 6.3
2018-Apr-16 09:00N 40°53' W 073°56'3 6.1
2018-Apr-16 08:30N 40°50' W 073°58'3 5.5
2018-Apr-16 08:00N 40°47' W 073°59'3 5.3
2018-Apr-16 07:30N 40°45' W 074°01'3 6.0
2018-Apr-16 07:00N 40°42' W 074°02'3 6.3
2018-Apr-16 06:30N 40°39' W 074°03'1 2.7
2018-Apr-16 06:00N 40°38' W 074°04'  
2018-Apr-12 21:18N 40°38' W 074°04'1 3.6
2018-Apr-12 21:00N 40°39' W 074°04'1 2.6
2018-Apr-12 20:30N 40°40' W 074°04'4 7.4
2018-Apr-12 20:00N 40°44' W 074°01'4 8.5
2018-Apr-12 19:30N 40°48' W 073°59'5 9.2
2018-Apr-12 18:59N 40°52' W 073°57'  
Track history (hours):
 
Tides and Currents Weather Stations Pressure Air Temp Water Temp Dewpoint Dewpoint Depression Visibility Wind Speed Wind Dir Waves Ship Positions

Susan Miller

Owner: Miller's Tug & Barge, Staten Island, NY. More information available from US FCC via Universal Licensing System and Coast Guard Vessel Documentation Center.

Last reported at 2018-Apr-20 21:41 UTC. Time now 2018-Apr-23 03:54 UTC.
Position N 40°38' W 074°04'.

Length 20 m; draft 3 m.

Type: Tug. MMSI: 367064470.

Date/timePositionNaut miles runAvg speedWind from/ knotsBaromVisibWave heightAir tempDewpointWater temp
2018-Apr-20 21:41N 40°38' W 074°04'1 4.3
2018-Apr-20 21:30N 40°39' W 074°04'611.3
2018-Apr-20 21:00N 40°44' W 074°01'611.1
2018-Apr-20 20:30N 40°49' W 073°58'510.0
2018-Apr-20 20:00N 40°54' W 073°55'  
2018-Apr-17 10:29N 40°55' W 073°55'4 7.8
2018-Apr-17 09:58N 40°51' W 073°57'3 7.1
2018-Apr-17 09:31N 40°48' W 073°59'3 6.7
2018-Apr-17 09:00N 40°45' W 074°01'3 6.7
2018-Apr-17 08:30N 40°42' W 074°02'3 6.3
2018-Apr-17 08:00N 40°39' W 074°03'1 0.1
2018-Apr-16 18:00N 40°38' W 074°04'3 5.1
2018-Apr-16 17:30N 40°40' W 074°03'5 9.7
2018-Apr-16 17:00N 40°45' W 074°01'5 9.3
2018-Apr-16 16:30N 40°49' W 073°58'6 0.8
2018-Apr-16 09:18N 40°55' W 073°55'2 6.3
2018-Apr-16 09:00N 40°53' W 073°56'3 6.1
2018-Apr-16 08:30N 40°50' W 073°58'3 5.5
2018-Apr-16 08:00N 40°47' W 073°59'3 5.3
2018-Apr-16 07:30N 40°45' W 074°01'3 6.0
2018-Apr-16 07:00N 40°42' W 074°02'3 6.3
2018-Apr-16 06:30N 40°39' W 074°03'1 2.7
2018-Apr-16 06:00N 40°38' W 074°04'  
2018-Apr-12 21:18N 40°38' W 074°04'1 3.6
2018-Apr-12 21:00N 40°39' W 074°04'1 2.6
2018-Apr-12 20:30N 40°40' W 074°04'4 7.4
2018-Apr-12 20:00N 40°44' W 074°01'4 8.5
2018-Apr-12 19:30N 40°48' W 073°59'5 9.2
2018-Apr-12 18:59N 40°52' W 073°57'  

Dump ship's entire track history